Alpine, Arizona
Current Conditions -  °F | °C
As of 5:35 AM on Monday 26 Jan 2015 (Local Time) from KJTC Reporting Station
Clear Clear  
Wind Chill: 25°   Ceiling: Unl
Heat Index: 25°   Visibility: 10mi
Dew Point: 18°   Wind: 3mph
Humidity: 74%   Direction: 170°S
Pressure: 30.36"   Gusts: NA
Location:  33.85°N, 109.14°W
Report Text: KJTC 261235Z AUTO 17003KT 10SM CLR M04/M08 A3036 RMK AO2
Loading
Personal Weather Stations






























Interactive Weather Map New forecast layout! Learn more

10-Day Weather Forecast

Advertisements
Track Severe Weather on mobile